createdAt,value
2022-12-22T00:01:59.396Z,4.18
2022-12-22T00:04:44.575Z,5.80
2022-12-22T00:07:29.829Z,4.05
2022-12-22T00:10:14.974Z,3.30
2022-12-22T00:12:59.984Z,3.88
2022-12-22T00:15:47.559Z,4.28
2022-12-22T00:18:34.114Z,5.82
2022-12-22T00:21:19.769Z,4.25
2022-12-22T00:24:04.655Z,4.20
2022-12-22T00:26:51.943Z,3.13
2022-12-22T00:29:37.273Z,3.28
2022-12-22T00:32:23.013Z,5.63
2022-12-22T00:35:08.669Z,3.65
2022-12-22T00:37:55.835Z,5.32
2022-12-22T00:40:45.559Z,6.07
2022-12-22T00:43:31.202Z,3.60
2022-12-22T00:46:18.632Z,4.28
2022-12-22T00:49:04.254Z,3.88
2022-12-22T00:51:50.831Z,2.47
2022-12-22T00:54:38.876Z,5.93
2022-12-22T00:57:24.444Z,2.90
2022-12-22T01:00:11.136Z,3.63
2022-12-22T01:02:56.300Z,4.72
2022-12-22T01:05:42.104Z,7.35
2022-12-22T01:08:29.361Z,3.17
2022-12-22T01:11:14.737Z,3.55
2022-12-22T01:14:00.127Z,2.72
2022-12-22T01:16:45.443Z,1.88
2022-12-22T01:19:30.383Z,4.82
2022-12-22T01:22:15.815Z,2.38
2022-12-22T01:25:03.645Z,1.50
2022-12-22T01:27:48.883Z,2.00
2022-12-22T01:30:35.393Z,1.30
2022-12-22T01:33:20.649Z,2.95
2022-12-22T01:36:05.980Z,1.70
2022-12-22T01:38:50.962Z,1.95
2022-12-22T01:41:39.038Z,1.65
2022-12-22T01:44:33.589Z,1.27
2022-12-22T01:47:49.898Z,1.48
2022-12-22T01:50:41.271Z,2.08
2022-12-22T01:53:31.159Z,2.03
2022-12-22T01:56:17.889Z,1.42
2022-12-22T01:59:07.994Z,3.20
2022-12-22T02:01:54.971Z,2.08
2022-12-22T02:04:44.746Z,1.42
2022-12-22T02:07:48.014Z,2.28
2022-12-22T02:10:56.751Z,1.70
2022-12-22T02:13:41.875Z,1.55
2022-12-22T02:16:33.190Z,1.63
2022-12-22T02:19:27.014Z,2.08
2022-12-22T02:22:34.199Z,1.77
2022-12-22T02:25:29.191Z,1.77
2022-12-22T02:28:15.204Z,1.38
2022-12-22T02:31:01.108Z,2.60
2022-12-22T02:33:46.503Z,2.63
2022-12-22T02:36:55.186Z,2.50
2022-12-22T02:39:56.816Z,3.10
2022-12-22T02:42:55.187Z,3.63
2022-12-22T02:45:49.144Z,1.75
2022-12-22T02:48:52.696Z,2.78
2022-12-22T02:51:42.758Z,3.33
2022-12-22T02:54:29.039Z,2.50
2022-12-22T02:57:14.475Z,1.77
2022-12-22T02:59:59.855Z,3.30
2022-12-22T03:02:45.208Z,1.98
2022-12-22T03:05:30.131Z,3.13
2022-12-22T03:08:16.074Z,1.77
2022-12-22T03:11:01.326Z,2.78
2022-12-22T03:13:46.218Z,3.05
2022-12-22T03:16:31.676Z,4.60
2022-12-22T03:19:16.867Z,2.53
2022-12-22T03:22:02.117Z,3.03
2022-12-22T03:24:47.113Z,2.35
2022-12-22T03:27:13.595Z,3.03
2022-12-22T03:29:40.066Z,3.58
2022-12-22T03:32:06.578Z,4.60
2022-12-22T03:34:33.402Z,2.25
2022-12-22T03:37:02.468Z,2.47
2022-12-22T03:39:29.065Z,3.08
2022-12-22T03:42:14.405Z,2.45
2022-12-22T03:44:59.366Z,3.65
2022-12-22T03:47:25.903Z,2.95
2022-12-22T03:49:52.377Z,2.72
2022-12-22T03:52:18.840Z,4.05
2022-12-22T03:54:45.417Z,2.58
2022-12-22T03:57:11.935Z,2.78
2022-12-22T03:59:38.453Z,3.13
2022-12-22T04:02:07.153Z,3.78
2022-12-22T04:04:34.047Z,4.22
2022-12-22T04:07:00.597Z,3.90
2022-12-22T04:09:27.718Z,3.38
2022-12-22T04:12:12.925Z,7.25
2022-12-22T04:14:39.533Z,3.20
2022-12-22T04:17:07.029Z,2.70
2022-12-22T04:19:33.860Z,4.25
2022-12-22T04:22:01.131Z,3.50
2022-12-22T04:24:27.771Z,3.88
2022-12-22T04:26:54.255Z,3.88
2022-12-22T04:29:20.739Z,2.97
2022-12-22T04:31:47.312Z,4.00
2022-12-22T04:34:13.890Z,3.13
2022-12-22T04:36:40.347Z,5.20
2022-12-22T04:39:06.850Z,4.55
2022-12-22T04:41:33.426Z,4.32
2022-12-22T04:43:59.914Z,3.90
2022-12-22T04:46:26.532Z,4.18
2022-12-22T04:48:57.849Z,5.32
2022-12-22T04:51:26.910Z,4.97
2022-12-22T04:53:53.438Z,6.03
2022-12-22T04:56:19.951Z,5.05
2022-12-22T04:58:46.633Z,3.65
2022-12-22T05:01:16.736Z,5.47
2022-12-22T05:03:43.630Z,3.42
2022-12-22T05:06:11.121Z,4.45
2022-12-22T05:08:38.241Z,3.42
2022-12-22T05:11:05.113Z,3.22
2022-12-22T05:13:32.414Z,7.35
2022-12-22T05:16:11.596Z,3.72
2022-12-22T05:18:39.312Z,4.60
2022-12-22T05:21:18.850Z,3.45
2022-12-22T05:23:45.502Z,3.47
2022-12-22T05:26:14.504Z,4.45
2022-12-22T05:28:42.796Z,2.72
2022-12-22T05:31:15.983Z,3.33
2022-12-22T05:33:42.630Z,3.33
2022-12-22T05:36:09.170Z,3.22
2022-12-22T05:38:35.881Z,4.75
2022-12-22T05:41:04.599Z,4.72
2022-12-22T05:43:35.167Z,3.58
2022-12-22T05:46:05.917Z,3.10
2022-12-22T05:48:37.840Z,3.08
2022-12-22T05:51:05.649Z,2.50
2022-12-22T05:53:32.152Z,2.17
2022-12-22T05:55:58.710Z,2.38
2022-12-22T05:58:25.358Z,4.07
2022-12-22T06:00:51.903Z,2.10
2022-12-22T06:03:18.428Z,3.17
2022-12-22T06:05:44.987Z,2.47
2022-12-22T06:08:11.569Z,2.40
2022-12-22T06:10:38.220Z,4.63
2022-12-22T06:13:04.655Z,3.47
2022-12-22T06:15:31.117Z,3.33
2022-12-22T06:17:58.565Z,3.47
2022-12-22T06:20:25.010Z,3.47
2022-12-22T06:22:51.657Z,2.83
2022-12-22T06:25:19.074Z,2.95
2022-12-22T06:27:47.302Z,4.50
2022-12-22T06:30:15.503Z,2.20
2022-12-22T06:32:42.080Z,3.63
2022-12-22T06:35:09.704Z,2.55
2022-12-22T06:37:36.406Z,3.80
2022-12-22T06:40:04.003Z,3.20
2022-12-22T06:42:48.981Z,2.30
2022-12-22T06:45:15.729Z,3.95
2022-12-22T06:47:42.242Z,6.55
2022-12-22T06:50:09.121Z,8.00
2022-12-22T06:52:36.047Z,4.65
2022-12-22T06:55:03.079Z,4.22
2022-12-22T06:57:29.848Z,4.25
2022-12-22T06:59:57.847Z,6.43
2022-12-22T07:02:25.051Z,3.58
2022-12-22T07:04:51.980Z,5.07
2022-12-22T07:07:18.469Z,2.47
2022-12-22T07:09:45.362Z,5.07
2022-12-22T07:12:13.934Z,3.92
2022-12-22T07:14:40.597Z,2.75
2022-12-22T07:17:07.173Z,4.80
2022-12-22T07:19:33.624Z,4.10
2022-12-22T07:22:02.794Z,4.32
2022-12-22T07:24:29.406Z,3.88
2022-12-22T07:26:56.146Z,6.22
2022-12-22T07:29:23.205Z,3.35
2022-12-22T07:31:49.958Z,3.38
2022-12-22T07:34:16.693Z,3.10
2022-12-22T07:36:43.310Z,4.22
2022-12-22T07:39:10.099Z,2.80
2022-12-22T07:41:55.335Z,2.58
2022-12-22T07:44:22.123Z,5.18
2022-12-22T07:46:48.676Z,2.75
2022-12-22T07:49:50.692Z,3.08
2022-12-22T07:52:17.172Z,2.30
2022-12-22T07:54:43.632Z,3.53
2022-12-22T07:57:10.141Z,3.15
2022-12-22T07:59:36.767Z,4.07
2022-12-22T08:02:03.494Z,4.68
2022-12-22T08:04:30.142Z,3.47
2022-12-22T08:06:56.790Z,3.42
2022-12-22T08:09:23.311Z,3.03
2022-12-22T08:11:50.326Z,3.15
2022-12-22T08:14:17.090Z,2.05
2022-12-22T08:16:43.612Z,5.15
2022-12-22T08:19:10.168Z,2.40
2022-12-22T08:21:36.886Z,2.85
2022-12-22T08:24:03.491Z,3.92
2022-12-22T08:26:40.645Z,7.15
2022-12-22T08:29:12.764Z,3.72
2022-12-22T08:31:40.673Z,3.33
2022-12-22T08:34:10.222Z,4.85
2022-12-22T08:36:44.851Z,3.45
2022-12-22T08:39:12.582Z,3.97
2022-12-22T08:41:51.457Z,3.17
2022-12-22T08:44:22.853Z,3.40
2022-12-22T08:46:50.511Z,3.25
2022-12-22T08:49:17.484Z,2.83
2022-12-22T08:51:45.523Z,3.55
2022-12-22T08:54:12.540Z,5.50
2022-12-22T08:56:39.415Z,4.88
2022-12-22T08:59:07.978Z,3.47
2022-12-22T09:01:36.769Z,2.35
2022-12-22T09:04:04.720Z,4.00
2022-12-22T09:06:38.592Z,3.40
2022-12-22T09:09:09.399Z,2.83
2022-12-22T09:11:36.021Z,3.75
2022-12-22T09:14:04.339Z,3.30
2022-12-22T09:16:32.567Z,5.15
2022-12-22T09:18:59.703Z,3.35
2022-12-22T09:21:26.604Z,2.15
2022-12-22T09:23:54.741Z,6.93
2022-12-22T09:26:23.256Z,3.00
2022-12-22T09:28:50.960Z,3.97
2022-12-22T09:31:19.848Z,3.55
2022-12-22T09:33:47.225Z,3.25
2022-12-22T09:36:17.160Z,4.63
2022-12-22T09:38:44.376Z,4.65
2022-12-22T09:41:31.883Z,3.83
2022-12-22T09:44:04.257Z,4.97
2022-12-22T09:46:34.565Z,4.75
2022-12-22T09:49:01.252Z,4.60
2022-12-22T09:51:29.325Z,3.45
2022-12-22T09:54:00.601Z,5.55
2022-12-22T09:56:28.580Z,6.18
2022-12-22T09:58:55.558Z,6.60
2022-12-22T10:01:56.442Z,5.05
2022-12-22T10:05:00.338Z,5.13
2022-12-22T10:07:35.633Z,4.82
2022-12-22T10:10:25.287Z,6.78
2022-12-22T10:13:00.766Z,4.20
2022-12-22T10:15:33.772Z,7.05
2022-12-22T10:18:22.075Z,5.72
2022-12-22T10:21:11.700Z,8.60
2022-12-22T10:23:41.912Z,4.95
2022-12-22T10:26:31.298Z,5.50
2022-12-22T10:29:07.820Z,6.13
2022-12-22T10:31:37.080Z,5.68
2022-12-22T10:34:17.752Z,6.57
2022-12-22T10:36:49.338Z,7.07
2022-12-22T10:39:24.481Z,5.95
2022-12-22T10:41:55.151Z,7.28
2022-12-22T10:44:26.163Z,6.75
2022-12-22T10:46:55.639Z,7.13
2022-12-22T10:49:29.252Z,6.65
2022-12-22T10:52:09.839Z,4.40
2022-12-22T10:54:36.789Z,5.72
2022-12-22T10:57:14.735Z,5.45
2022-12-22T10:59:50.571Z,5.88
2022-12-22T11:02:28.390Z,4.88
2022-12-22T11:05:04.944Z,6.28
2022-12-22T11:07:37.823Z,5.32
2022-12-22T11:10:33.599Z,5.32
2022-12-22T11:13:37.393Z,7.50
2022-12-22T11:16:14.309Z,5.88
2022-12-22T11:18:49.736Z,7.13
2022-12-22T11:21:28.763Z,6.18
2022-12-22T11:24:25.369Z,6.80
2022-12-22T11:27:01.187Z,7.22
2022-12-22T11:29:48.362Z,6.63
2022-12-22T11:32:33.826Z,5.00
2022-12-22T11:35:29.049Z,6.13
2022-12-22T11:38:06.555Z,7.13
2022-12-22T11:40:40.031Z,7.03
2022-12-22T11:43:24.152Z,6.63
2022-12-22T11:45:59.554Z,9.13
2022-12-22T11:48:39.988Z,6.32
2022-12-22T11:51:22.224Z,7.13
2022-12-22T11:54:34.169Z,6.40
2022-12-22T11:57:23.947Z,6.57
2022-12-22T12:00:11.777Z,7.32
2022-12-22T12:03:10.999Z,6.40
2022-12-22T12:05:55.941Z,6.47
2022-12-22T12:08:49.552Z,7.43
2022-12-22T12:11:41.491Z,7.05
2022-12-22T12:14:20.805Z,8.13
2022-12-22T12:17:02.964Z,7.72
2022-12-22T12:19:36.861Z,7.50
2022-12-22T12:22:10.402Z,7.57
2022-12-22T12:25:02.673Z,8.85
2022-12-22T12:28:10.727Z,9.55
2022-12-22T12:30:52.044Z,11.13
2022-12-22T12:33:36.415Z,9.38
2022-12-22T12:36:14.933Z,14.70
2022-12-22T12:39:08.453Z,11.48
2022-12-22T12:41:48.342Z,15.60
2022-12-22T12:44:21.208Z,11.90
2022-12-22T12:46:50.815Z,11.43
2022-12-22T12:49:36.025Z,15.52
2022-12-22T12:52:12.498Z,11.80
2022-12-22T12:54:47.252Z,12.38
2022-12-22T12:57:24.557Z,12.55
2022-12-22T12:59:53.574Z,11.95
2022-12-22T13:02:37.732Z,10.45
2022-12-22T13:05:33.435Z,11.82
2022-12-22T13:08:12.352Z,12.40
2022-12-22T13:10:50.209Z,10.23
2022-12-22T13:13:22.774Z,9.90
2022-12-22T13:16:04.491Z,10.60
2022-12-22T13:18:34.010Z,10.77
2022-12-22T13:21:50.296Z,12.98
2022-12-22T13:24:27.818Z,9.43
2022-12-22T13:27:01.742Z,11.27
2022-12-22T13:29:49.194Z,12.10
2022-12-22T13:32:19.122Z,13.90
2022-12-22T13:35:28.920Z,13.43
2022-12-22T13:37:46.361Z,11.80
2022-12-22T13:40:25.374Z,12.63
2022-12-22T13:43:04.190Z,11.93
2022-12-22T13:45:43.527Z,16.65
2022-12-22T13:48:18.603Z,13.13
2022-12-22T13:50:51.642Z,16.15
2022-12-22T13:56:22.705Z,17.73
2022-12-22T13:58:57.348Z,18.80
2022-12-22T14:01:24.307Z,14.57
2022-12-22T14:04:00.835Z,14.48
2022-12-22T14:06:34.604Z,18.25
2022-12-22T14:09:20.760Z,18.23
2022-12-22T14:11:57.857Z,15.30
2022-12-22T14:14:28.131Z,15.65
2022-12-22T14:16:58.087Z,17.60
2022-12-22T14:19:26.676Z,14.88
2022-12-22T14:22:02.326Z,10.38
2022-12-22T14:24:38.071Z,14.23
2022-12-22T14:27:06.735Z,13.02
2022-12-22T14:29:33.433Z,13.50
2022-12-22T14:32:05.173Z,16.50
2022-12-22T14:34:33.914Z,17.48
2022-12-22T14:37:01.975Z,14.80
2022-12-22T14:39:31.960Z,16.02
2022-12-22T14:42:01.834Z,14.35
2022-12-22T14:44:35.455Z,16.80
2022-12-22T14:47:17.844Z,14.57
2022-12-22T14:50:06.228Z,19.27
2022-12-22T14:52:44.150Z,16.85
2022-12-22T14:55:32.568Z,13.95
2022-12-22T14:58:04.569Z,19.00
2022-12-22T15:00:33.368Z,18.65
2022-12-22T15:03:33.080Z,15.77
2022-12-22T15:06:34.246Z,18.13
2022-12-22T15:09:08.805Z,20.33
2022-12-22T15:11:38.943Z,20.15
2022-12-22T15:14:05.704Z,21.88
2022-12-22T15:16:32.337Z,17.85
2022-12-22T15:18:58.968Z,16.48
2022-12-22T15:21:25.518Z,19.85
2022-12-22T15:23:51.998Z,16.63
2022-12-22T15:26:18.622Z,15.13
2022-12-22T15:28:45.265Z,14.38
2022-12-22T15:31:15.762Z,15.57
2022-12-22T15:33:43.666Z,16.33
2022-12-22T15:36:12.352Z,21.67
2022-12-22T15:38:39.547Z,17.73
2022-12-22T15:41:07.330Z,21.73
2022-12-22T15:46:22.557Z,24.50
2022-12-22T15:48:49.375Z,20.85
2022-12-22T15:51:22.608Z,18.02
2022-12-22T15:53:49.242Z,19.98
2022-12-22T15:56:21.446Z,18.38
2022-12-22T15:58:48.963Z,18.20
2022-12-22T16:01:15.913Z,17.58
2022-12-22T16:03:42.584Z,16.35
2022-12-22T16:06:18.946Z,16.98
2022-12-22T16:08:51.988Z,16.05
2022-12-22T16:11:19.338Z,16.95
2022-12-22T16:13:47.222Z,14.57
2022-12-22T16:16:13.885Z,16.67
2022-12-22T16:18:40.780Z,17.85
2022-12-22T16:21:19.027Z,15.00
2022-12-22T16:23:49.476Z,14.90
2022-12-22T16:26:19.203Z,16.80
2022-12-22T16:28:47.125Z,14.68
2022-12-22T16:31:24.938Z,13.40
2022-12-22T16:33:51.702Z,10.55
2022-12-22T16:36:18.820Z,11.73
2022-12-22T16:38:46.028Z,13.50
2022-12-22T16:41:25.703Z,15.30
2022-12-22T16:44:05.459Z,10.68
2022-12-22T16:46:36.368Z,12.23
2022-12-22T16:49:06.621Z,9.55
2022-12-22T16:51:34.148Z,11.57
2022-12-22T16:54:01.908Z,11.25
2022-12-22T16:56:30.395Z,11.88
2022-12-22T16:58:57.497Z,11.95
2022-12-22T17:01:41.364Z,14.52
2022-12-22T17:04:13.531Z,11.50
2022-12-22T17:06:41.310Z,14.10
2022-12-22T17:09:23.080Z,11.60
2022-12-22T17:11:50.037Z,13.77
2022-12-22T17:14:33.046Z,12.98
2022-12-22T17:17:00.158Z,9.50
2022-12-22T17:19:26.777Z,9.32
2022-12-22T17:21:55.018Z,11.73
2022-12-22T17:24:28.182Z,11.45
2022-12-22T17:27:00.908Z,10.10
2022-12-22T17:29:28.220Z,11.20
2022-12-22T17:31:56.673Z,11.77
2022-12-22T17:34:24.163Z,8.50
2022-12-22T17:36:51.660Z,10.38
2022-12-22T17:39:23.402Z,13.27
2022-12-22T17:41:56.392Z,9.05
2022-12-22T17:44:25.679Z,11.68
2022-12-22T17:46:52.593Z,10.13
2022-12-22T17:49:22.012Z,9.43
2022-12-22T17:51:48.826Z,10.35
2022-12-22T17:54:24.051Z,14.20
2022-12-22T17:56:51.019Z,9.75
2022-12-22T17:59:17.614Z,11.77
2022-12-22T18:01:44.405Z,11.60
2022-12-22T18:04:11.283Z,10.60
2022-12-22T18:06:42.787Z,12.52
2022-12-22T18:09:20.424Z,11.23
2022-12-22T18:11:47.130Z,10.20
2022-12-22T18:14:14.543Z,8.40
2022-12-22T18:16:42.378Z,9.93
2022-12-22T18:19:09.158Z,11.75
2022-12-22T18:21:35.896Z,8.80
2022-12-22T18:24:03.692Z,6.50
2022-12-22T18:26:31.190Z,8.50
2022-12-22T18:28:58.149Z,7.80
2022-12-22T18:31:25.602Z,10.65
2022-12-22T18:33:52.636Z,7.88
2022-12-22T18:36:31.106Z,8.75
2022-12-22T18:38:59.259Z,11.00
2022-12-22T18:41:27.104Z,8.45
2022-12-22T18:43:53.822Z,8.68
2022-12-22T18:46:20.774Z,12.10
2022-12-22T18:48:48.305Z,8.85
2022-12-22T18:51:21.110Z,9.75
2022-12-22T18:53:49.176Z,8.90
2022-12-22T18:56:15.913Z,11.90
2022-12-22T18:58:43.055Z,12.60
2022-12-22T19:01:27.095Z,6.55
2022-12-22T19:03:56.712Z,10.73
2022-12-22T19:06:24.366Z,10.93
2022-12-22T19:08:51.803Z,10.48
2022-12-22T19:11:27.523Z,7.82
2022-12-22T19:13:54.181Z,10.48
2022-12-22T19:16:25.799Z,9.20
2022-12-22T19:18:52.568Z,14.25
2022-12-22T19:21:19.992Z,12.05
2022-12-22T19:23:49.170Z,9.45
2022-12-22T19:26:25.305Z,10.80
2022-12-22T19:28:55.912Z,9.30
2022-12-22T19:31:25.787Z,12.23
2022-12-22T19:33:53.624Z,10.70
2022-12-22T19:36:26.391Z,15.00
2022-12-22T19:39:04.352Z,10.10
2022-12-22T19:41:47.882Z,11.48
2022-12-22T19:44:19.711Z,13.05
2022-12-22T19:46:47.495Z,12.18
2022-12-22T19:49:20.478Z,12.30
2022-12-22T19:51:47.082Z,14.07
2022-12-22T19:54:17.112Z,12.65
2022-12-22T19:56:48.726Z,14.20
2022-12-22T19:59:40.784Z,12.75
2022-12-22T20:02:27.044Z,13.13
2022-12-22T20:04:54.906Z,15.73
2022-12-22T20:07:23.829Z,12.40
2022-12-22T20:09:51.018Z,13.30
2022-12-22T20:12:34.347Z,14.95
2022-12-22T20:15:02.477Z,11.05
2022-12-22T20:17:29.042Z,12.20
2022-12-22T20:19:55.763Z,12.25
2022-12-22T20:22:23.863Z,15.15
2022-12-22T20:24:51.872Z,14.13
2022-12-22T20:27:34.823Z,14.90
2022-12-22T20:30:01.709Z,11.75
2022-12-22T20:32:28.893Z,12.82
2022-12-22T20:34:56.348Z,15.93
2022-12-22T20:37:25.438Z,12.82
2022-12-22T20:39:52.029Z,12.65
2022-12-22T20:42:21.247Z,14.98
2022-12-22T20:45:04.203Z,13.95
2022-12-22T20:47:33.123Z,10.98
2022-12-22T20:49:59.695Z,14.82
2022-12-22T20:52:26.667Z,12.65
2022-12-22T20:54:53.334Z,14.02
2022-12-22T20:57:21.572Z,16.60
2022-12-22T20:59:53.909Z,12.65
2022-12-22T21:02:27.987Z,14.50
2022-12-22T21:04:55.535Z,12.18
2022-12-22T21:07:22.534Z,14.18
2022-12-22T21:09:49.170Z,17.63
2022-12-22T21:12:15.738Z,15.10
2022-12-22T21:14:42.177Z,12.88
2022-12-22T21:17:19.587Z,12.55
2022-12-22T21:19:46.644Z,12.43
2022-12-22T21:22:13.859Z,14.68
2022-12-22T21:24:41.972Z,13.52
2022-12-22T21:27:16.570Z,13.73
2022-12-22T21:29:43.494Z,15.98
2022-12-22T21:32:13.799Z,14.45
2022-12-22T21:34:40.916Z,15.00
2022-12-22T21:37:15.022Z,15.48
2022-12-22T21:39:44.904Z,19.33
2022-12-22T21:42:18.603Z,16.95
2022-12-22T21:44:45.715Z,15.15
2022-12-22T21:47:14.382Z,13.90
2022-12-22T21:49:40.963Z,15.18
2022-12-22T21:52:07.585Z,13.95
2022-12-22T21:54:37.405Z,16.38
2022-12-22T21:57:04.303Z,14.27
2022-12-22T21:59:31.654Z,15.50
2022-12-22T22:01:58.619Z,14.65
2022-12-22T22:04:25.713Z,11.45
2022-12-22T22:06:52.251Z,10.82
2022-12-22T22:09:19.148Z,12.25
2022-12-22T22:12:04.426Z,11.68
2022-12-22T22:14:30.976Z,11.27
2022-12-22T22:16:57.609Z,8.80
2022-12-22T22:19:24.243Z,12.27
2022-12-22T22:21:50.701Z,10.18
2022-12-22T22:24:17.744Z,10.40
2022-12-22T22:26:46.266Z,11.95
2022-12-22T22:29:13.119Z,11.57
2022-12-22T22:31:40.382Z,12.57
2022-12-22T22:34:07.308Z,12.02
2022-12-22T22:36:33.827Z,10.95
2022-12-22T22:39:00.516Z,11.68
2022-12-22T22:41:28.488Z,12.45
2022-12-22T22:43:55.186Z,10.73
2022-12-22T22:46:21.774Z,11.80
2022-12-22T22:48:48.652Z,11.68
2022-12-22T22:51:15.147Z,13.02
2022-12-22T22:53:42.070Z,13.13
2022-12-22T22:56:09.248Z,13.80
2022-12-22T22:58:35.863Z,14.02
2022-12-22T23:01:10.913Z,15.95
2022-12-22T23:03:38.116Z,16.27
2022-12-22T23:06:07.893Z,16.27
2022-12-22T23:08:34.927Z,14.52
2022-12-22T23:11:02.449Z,13.93
2022-12-22T23:13:29.541Z,12.73
2022-12-22T23:15:57.889Z,11.35
2022-12-22T23:18:24.899Z,13.55
2022-12-22T23:20:51.729Z,11.38
2022-12-22T23:23:19.286Z,11.48
2022-12-22T23:25:49.241Z,11.02
2022-12-22T23:28:16.728Z,12.73
2022-12-22T23:30:45.774Z,11.65
2022-12-22T23:33:12.243Z,12.38
2022-12-22T23:35:40.563Z,12.85
2022-12-22T23:38:08.887Z,11.40
2022-12-22T23:43:23.187Z,12.80
2022-12-22T23:45:49.780Z,12.65
2022-12-22T23:48:16.545Z,11.15
2022-12-22T23:50:46.360Z,13.32
2022-12-22T23:53:13.284Z,11.98
2022-12-22T23:55:49.742Z,10.40
2022-12-22T23:58:17.155Z,9.50
